Time;durP1;ratioP1;P1;durP2;ratioP2;P2;SDS_P1;SDS_P2;PMS_P1;PMS_P2;Temp;Humidity;BMP_temperature;BMP_pressure;BME280_temperature;BME280_humidity;BME280_pressure;Samples;Min_cycle;Max_cycle;Signal;HPM_P1;HPM_P2
2021/11/05 00:00:53;;;;;;;18.63;2.60;;;;;;;;;;5096756;28;20020;-51
2021/11/05 00:03:19;;;;;;;12.70;2.80;;;;;;;;;;5091399;28;20403;-52
2021/11/05 00:05:44;;;;;;;9.75;2.97;;;;;;;;;;5094801;28;20035;-52
2021/11/05 00:08:10;;;;;;;17.75;2.60;;;;;;;;;;5098966;28;20032;-52
2021/11/05 00:10:38;;;;;;;15.50;3.10;;;;;;;;;;5095648;28;20039;-50
2021/11/05 00:13:04;;;;;;;12.63;2.70;;;;;;;;;;5088645;28;20116;-52
2021/11/05 00:15:30;;;;;;;5.75;1.73;;;;;;;;;;5091715;28;20506;-53
2021/11/05 00:17:55;;;;;;;17.58;3.17;;;;;;;;;;5094649;28;20081;-53
2021/11/05 00:20:21;;;;;;;16.48;2.72;;;;;;;;;;5092479;28;20023;-53
2021/11/05 00:22:46;;;;;;;8.20;3.00;;;;;;;;;;5088695;28;20039;-54
2021/11/05 00:25:12;;;;;;;16.70;3.78;;;;;;;;;;5092626;28;20154;-52
2021/11/05 00:27:41;;;;;;;13.60;3.33;;;;;;;;;;5096467;28;20111;-53
2021/11/05 00:30:09;;;;;;;10.27;2.90;;;;;;;;;;5092408;28;20051;-52
2021/11/05 00:32:35;;;;;;;14.73;3.90;;;;;;;;;;5087144;28;20085;-53
2021/11/05 00:35:01;;;;;;;9.25;2.97;;;;;;;;;;5090010;28;20032;-51
2021/11/05 00:37:26;;;;;;;32.72;3.35;;;;;;;;;;5091628;28;20391;-53
2021/11/05 00:39:52;;;;;;;11.95;3.17;;;;;;;;;;5097660;28;20016;-51
2021/11/05 00:42:18;;;;;;;17.48;3.58;;;;;;;;;;5094209;28;20476;-51
2021/11/05 00:44:44;;;;;;;19.13;4.22;;;;;;;;;;5094615;28;20392;-50
2021/11/05 00:47:10;;;;;;;18.52;3.25;;;;;;;;;;5092582;28;20043;-52
2021/11/05 00:49:35;;;;;;;12.02;3.33;;;;;;;;;;5090937;28;20020;-49
2021/11/05 00:52:01;;;;;;;15.25;2.75;;;;;;;;;;5093648;28;20383;-50
2021/11/05 00:54:26;;;;;;;17.17;3.58;;;;;;;;;;5092146;28;20039;-50
2021/11/05 00:56:52;;;;;;;26.65;3.97;;;;;;;;;;5079477;28;20482;-51
2021/11/05 00:59:17;;;;;;;19.92;3.22;;;;;;;;;;5092674;28;20042;-50
2021/11/05 01:01:43;;;;;;;13.90;2.90;;;;;;;;;;5095573;28;20281;-53
2021/11/05 01:04:08;;;;;;;12.98;2.60;;;;;;;;;;5095867;28;20414;-52
2021/11/05 01:06:35;;;;;;;9.63;2.30;;;;;;;;;;5092915;28;20070;-50
2021/11/05 01:09:02;;;;;;;12.70;2.88;;;;;;;;;;5095889;28;20486;-53
2021/11/05 01:11:28;;;;;;;14.68;2.78;;;;;;;;;;5093820;28;20043;-52
2021/11/05 01:13:53;;;;;;;9.35;2.60;;;;;;;;;;5095669;28;20039;-51
2021/11/05 01:16:19;;;;;;;13.13;2.53;;;;;;;;;;5097896;28;20032;-53
2021/11/05 01:18:46;;;;;;;24.70;3.05;;;;;;;;;;5097087;28;20119;-52
2021/11/05 01:21:12;;;;;;;13.88;2.35;;;;;;;;;;5095075;28;20028;-53
2021/11/05 01:23:37;;;;;;;16.25;2.85;;;;;;;;;;5100860;28;20047;-51
2021/11/05 01:26:03;;;;;;;11.43;2.85;;;;;;;;;;5093828;28;20043;-54
2021/11/05 01:28:28;;;;;;;10.50;3.28;;;;;;;;;;5096579;28;20110;-50
2021/11/05 01:30:55;;;;;;;17.15;2.47;;;;;;;;;;5094308;28;20040;-49
2021/11/05 01:33:21;;;;;;;15.38;3.10;;;;;;;;;;5093746;28;20035;-49
2021/11/05 01:35:47;;;;;;;11.70;2.58;;;;;;;;;;5093913;28;20023;-50
2021/11/05 01:38:12;;;;;;;5.20;2.25;;;;;;;;;;5095020;28;20031;-49
2021/11/05 01:40:41;;;;;;;21.58;3.17;;;;;;;;;;5097370;28;20481;-50
2021/11/05 01:43:08;;;;;;;16.98;3.05;;;;;;;;;;5096200;28;20019;-50
2021/11/05 01:45:33;;;;;;;9.70;2.30;;;;;;;;;;5076929;28;20122;-53
2021/11/05 01:48:00;;;;;;;15.27;3.05;;;;;;;;;;5080742;28;20114;-54
2021/11/05 01:50:27;;;;;;;12.02;2.50;;;;;;;;;;5095729;27;20024;-53
2021/11/05 01:52:53;;;;;;;16.55;3.42;;;;;;;;;;5091136;28;20110;-52
2021/11/05 01:55:19;;;;;;;15.43;3.40;;;;;;;;;;5096548;28;20118;-50
2021/11/05 01:57:45;;;;;;;13.00;2.45;;;;;;;;;;5080403;27;20119;-51
2021/11/05 02:00:16;;;;;;;19.88;3.15;;;;;;;;;;5100653;27;20526;-51
2021/11/05 02:02:43;;;;;;;10.80;3.05;;;;;;;;;;5097088;28;20028;-51
2021/11/05 02:05:09;;;;;;;10.32;2.85;;;;;;;;;;5094684;28;20136;-50
2021/11/05 02:07:37;;;;;;;12.15;3.03;;;;;;;;;;5096417;28;20490;-50
2021/11/05 02:10:08;;;;;;;23.25;3.20;;;;;;;;;;5097930;28;20047;-53
2021/11/05 02:12:33;;;;;;;19.42;2.97;;;;;;;;;;5097209;28;20106;-52
2021/11/05 02:15:00;;;;;;;16.00;2.22;;;;;;;;;;5095515;28;20111;-53
2021/11/05 02:17:26;;;;;;;10.55;2.85;;;;;;;;;;5096229;28;20215;-50
2021/11/05 02:19:52;;;;;;;23.95;2.60;;;;;;;;;;5098393;27;20573;-50
2021/11/05 02:22:19;;;;;;;12.73;2.97;;;;;;;;;;5099579;28;20129;-54
2021/11/05 02:24:45;;;;;;;15.27;2.80;;;;;;;;;;5075209;28;20038;-50
2021/11/05 02:27:11;;;;;;;8.95;2.65;;;;;;;;;;5078865;28;20024;-52
2021/11/05 02:29:37;;;;;;;14.32;2.90;;;;;;;;;;5094046;28;20566;-53
2021/11/05 02:32:05;;;;;;;12.13;2.42;;;;;;;;;;5096591;28;20028;-55
2021/11/05 02:34:31;;;;;;;10.48;2.15;;;;;;;;;;5095222;28;20027;-50
2021/11/05 02:36:58;;;;;;;10.98;2.53;;;;;;;;;;5094736;28;20034;-53
2021/11/05 02:39:24;;;;;;;12.50;2.65;;;;;;;;;;5095142;28;20537;-52
2021/11/05 02:41:51;;;;;;;16.35;3.22;;;;;;;;;;5095056;28;20028;-52
2021/11/05 02:44:17;;;;;;;9.50;2.35;;;;;;;;;;5091810;28;20036;-53
2021/11/05 02:46:43;;;;;;;13.32;3.28;;;;;;;;;;5098535;28;20034;-53
2021/11/05 02:49:09;;;;;;;18.05;2.85;;;;;;;;;;5098295;28;20070;-50
2021/11/05 02:51:37;;;;;;;22.73;2.85;;;;;;;;;;5095775;28;20020;-52
2021/11/05 02:54:03;;;;;;;15.90;2.95;;;;;;;;;;5093136;28;20032;-51
2021/11/05 02:56:29;;;;;;;7.05;2.15;;;;;;;;;;5090427;28;20486;-53
2021/11/05 02:58:54;;;;;;;8.90;2.72;;;;;;;;;;5091630;28;20359;-51
2021/11/05 03:01:20;;;;;;;15.95;2.80;;;;;;;;;;5095055;28;20024;-51
2021/11/05 03:03:46;;;;;;;18.38;2.80;;;;;;;;;;5093357;28;20058;-53
2021/11/05 03:06:12;;;;;;;14.02;3.10;;;;;;;;;;5093785;28;20039;-51
2021/11/05 03:08:38;;;;;;;12.48;2.78;;;;;;;;;;5094184;28;20032;-51
2021/11/05 03:11:04;;;;;;;11.48;2.85;;;;;;;;;;5092715;28;20116;-52
2021/11/05 03:13:30;;;;;;;13.60;3.08;;;;;;;;;;5096922;28;20032;-52
2021/11/05 03:15:55;;;;;;;12.57;3.38;;;;;;;;;;5096381;28;20031;-53
2021/11/05 03:18:21;;;;;;;10.65;3.38;;;;;;;;;;5096936;27;20058;-52
2021/11/05 03:20:47;;;;;;;12.55;3.83;;;;;;;;;;5100070;27;20164;-53
2021/11/05 03:23:15;;;;;;;10.40;3.05;;;;;;;;;;5091952;28;20072;-53
2021/11/05 03:25:41;;;;;;;20.23;2.83;;;;;;;;;;5090869;28;20053;-53
2021/11/05 03:28:08;;;;;;;15.30;2.70;;;;;;;;;;5090845;28;20144;-50
2021/11/05 03:30:34;;;;;;;14.30;3.38;;;;;;;;;;5091372;28;20031;-51
2021/11/05 03:33:00;;;;;;;16.70;3.30;;;;;;;;;;5092783;28;20390;-50
2021/11/05 03:35:25;;;;;;;14.98;2.58;;;;;;;;;;5099373;28;20027;-52
2021/11/05 03:37:51;;;;;;;12.00;2.63;;;;;;;;;;5093486;28;20213;-49
2021/11/05 03:40:18;;;;;;;21.00;2.63;;;;;;;;;;5076337;28;20028;-53
2021/11/05 03:42:48;;;;;;;13.40;2.80;;;;;;;;;;5097170;28;20028;-50
2021/11/05 03:45:17;;;;;;;12.48;2.40;;;;;;;;;;5093335;28;20284;-50
2021/11/05 03:47:42;;;;;;;7.40;2.30;;;;;;;;;;5073211;28;20035;-53
2021/11/05 03:50:08;;;;;;;12.20;2.60;;;;;;;;;;5093807;28;20039;-53
2021/11/05 03:52:34;;;;;;;12.00;3.08;;;;;;;;;;5094003;28;20627;-52
2021/11/05 03:55:00;;;;;;;10.40;2.65;;;;;;;;;;5096366;28;20130;-52
2021/11/05 03:57:25;;;;;;;17.70;2.90;;;;;;;;;;5091077;28;20103;-49
2021/11/05 03:59:51;;;;;;;14.05;3.78;;;;;;;;;;5091888;28;20042;-51
2021/11/05 04:02:17;;;;;;;8.30;1.77;;;;;;;;;;5095909;28;20038;-53
2021/11/05 04:04:42;;;;;;;13.35;1.98;;;;;;;;;;5077252;28;20166;-51
2021/11/05 04:07:08;;;;;;;11.98;2.35;;;;;;;;;;5088992;28;20032;-50
2021/11/05 04:09:33;;;;;;;15.07;2.50;;;;;;;;;;5090279;28;20112;-53
2021/11/05 04:11:59;;;;;;;13.85;2.78;;;;;;;;;;5094739;28;20059;-50
2021/11/05 04:14:24;;;;;;;20.40;2.67;;;;;;;;;;5092142;28;20108;-52
2021/11/05 04:16:50;;;;;;;10.77;2.25;;;;;;;;;;5074318;28;20035;-52
2021/11/05 04:19:16;;;;;;;9.98;2.10;;;;;;;;;;5093828;28;20027;-52
2021/11/05 04:21:41;;;;;;;14.93;2.47;;;;;;;;;;5076375;28;20062;-53
2021/11/05 04:24:07;;;;;;;13.15;2.97;;;;;;;;;;5094820;28;20031;-49
2021/11/05 04:26:34;;;;;;;7.97;2.13;;;;;;;;;;5090463;28;20502;-50
2021/11/05 04:29:00;;;;;;;13.85;2.38;;;;;;;;;;5095253;28;20513;-52
2021/11/05 04:31:25;;;;;;;7.88;2.33;;;;;;;;;;5090586;28;20067;-51
2021/11/05 04:33:51;;;;;;;17.23;2.95;;;;;;;;;;5092007;28;20658;-53
2021/11/05 04:36:18;;;;;;;15.35;2.53;;;;;;;;;;5097916;28;20084;-52
2021/11/05 04:38:44;;;;;;;16.45;2.90;;;;;;;;;;5092982;28;20126;-49
2021/11/05 04:41:10;;;;;;;11.75;2.40;;;;;;;;;;5088530;28;20055;-51
2021/11/05 04:43:35;;;;;;;12.82;2.38;;;;;;;;;;5097699;28;20506;-53
2021/11/05 04:46:01;;;;;;;15.82;2.53;;;;;;;;;;5098984;28;20032;-48
2021/11/05 04:48:26;;;;;;;9.52;3.00;;;;;;;;;;5098569;28;20036;-53
2021/11/05 04:50:52;;;;;;;11.43;2.35;;;;;;;;;;5094574;28;20032;-52
2021/11/05 04:53:17;;;;;;;14.20;2.17;;;;;;;;;;5094758;28;20072;-50
2021/11/05 04:55:43;;;;;;;12.20;2.20;;;;;;;;;;5099102;28;20024;-51
2021/11/05 04:58:08;;;;;;;14.82;2.40;;;;;;;;;;5093189;28;20040;-51
2021/11/05 05:00:34;;;;;;;14.55;2.05;;;;;;;;;;5075877;28;20470;-52
2021/11/05 05:03:00;;;;;;;9.82;2.30;;;;;;;;;;5091833;28;20278;-49
2021/11/05 05:05:27;;;;;;;13.43;2.28;;;;;;;;;;5098096;28;20059;-52
2021/11/05 05:07:53;;;;;;;24.67;2.97;;;;;;;;;;5094234;28;20405;-52
2021/11/05 05:10:19;;;;;;;17.83;2.33;;;;;;;;;;5097557;28;20431;-50
2021/11/05 05:12:45;;;;;;;12.38;2.15;;;;;;;;;;5098395;28;20061;-51
2021/11/05 05:15:12;;;;;;;6.28;2.15;;;;;;;;;;5096988;28;20516;-50
2021/11/05 05:17:38;;;;;;;21.25;3.15;;;;;;;;;;5101678;28;20027;-52
2021/11/05 05:20:08;;;;;;;7.72;1.58;;;;;;;;;;5093590;28;20382;-52
2021/11/05 05:22:34;;;;;;;10.50;1.83;;;;;;;;;;5096600;28;20460;-51
2021/11/05 05:25:00;;;;;;;9.32;2.03;;;;;;;;;;5095335;28;20038;-48
2021/11/05 05:27:25;;;;;;;12.80;2.05;;;;;;;;;;5100342;27;20027;-51
2021/11/05 05:29:51;;;;;;;6.40;2.25;;;;;;;;;;5094895;27;20036;-52
2021/11/05 05:32:16;;;;;;;19.00;2.75;;;;;;;;;;5096694;27;20042;-50
2021/11/05 05:34:42;;;;;;;17.63;2.47;;;;;;;;;;5095892;28;20036;-51
2021/11/05 05:37:08;;;;;;;10.68;1.70;;;;;;;;;;5102496;28;20036;-51
2021/11/05 05:39:33;;;;;;;5.80;1.75;;;;;;;;;;5093171;28;20043;-52
2021/11/05 05:41:59;;;;;;;9.75;1.75;;;;;;;;;;5097109;28;20027;-53
2021/11/05 05:44:25;;;;;;;14.93;2.78;;;;;;;;;;5093304;28;20569;-53
2021/11/05 05:46:50;;;;;;;4.78;1.48;;;;;;;;;;5099007;28;20027;-54
2021/11/05 05:49:16;;;;;;;8.60;1.63;;;;;;;;;;5094959;28;20110;-52
2021/11/05 05:51:42;;;;;;;6.63;1.35;;;;;;;;;;5099109;28;20945;-52
2021/11/05 05:54:07;;;;;;;10.30;1.08;;;;;;;;;;5099124;28;20042;-51
2021/11/05 05:56:33;;;;;;;8.20;1.83;;;;;;;;;;5096559;28;20035;-52
2021/11/05 05:58:59;;;;;;;15.55;1.88;;;;;;;;;;5097343;28;20032;-53
2021/11/05 06:01:24;;;;;;;6.82;1.48;;;;;;;;;;5095522;28;20433;-50
2021/11/05 06:03:50;;;;;;;5.72;1.20;;;;;;;;;;5095101;28;20106;-52
2021/11/05 06:06:15;;;;;;;12.32;1.63;;;;;;;;;;5093824;28;20028;-52
2021/11/05 06:08:41;;;;;;;6.53;1.55;;;;;;;;;;5101493;28;20277;-50
2021/11/05 06:11:07;;;;;;;4.75;1.50;;;;;;;;;;5096612;28;20042;-51
2021/11/05 06:13:33;;;;;;;13.07;1.80;;;;;;;;;;5095463;28;20036;-51
2021/11/05 06:15:59;;;;;;;11.73;1.67;;;;;;;;;;5095770;28;20030;-53
2021/11/05 06:18:25;;;;;;;7.00;1.33;;;;;;;;;;5089622;28;20047;-52
2021/11/05 06:20:51;;;;;;;9.65;1.77;;;;;;;;;;5093133;28;20427;-54
2021/11/05 06:23:16;;;;;;;13.43;1.40;;;;;;;;;;5093453;28;20058;-51
2021/11/05 06:25:42;;;;;;;9.57;1.33;;;;;;;;;;5094412;28;20047;-50
2021/11/05 06:28:07;;;;;;;12.20;1.90;;;;;;;;;;5092190;28;20108;-52
2021/11/05 06:30:33;;;;;;;16.10;1.40;;;;;;;;;;5093354;28;20058;-53
2021/11/05 06:33:00;;;;;;;7.45;1.10;;;;;;;;;;5081783;28;20048;-50
2021/11/05 06:35:26;;;;;;;8.60;1.60;;;;;;;;;;5096012;28;20040;-52
2021/11/05 06:37:52;;;;;;;11.95;1.58;;;;;;;;;;5090168;28;20024;-52
2021/11/05 06:40:18;;;;;;;5.15;1.10;;;;;;;;;;5093268;28;20024;-51
2021/11/05 06:42:45;;;;;;;13.25;2.33;;;;;;;;;;5095957;28;20361;-53
2021/11/05 06:45:11;;;;;;;9.43;1.42;;;;;;;;;;5079710;28;20024;-53
2021/11/05 06:47:37;;;;;;;8.77;1.70;;;;;;;;;;5099277;28;20035;-52
2021/11/05 06:50:06;;;;;;;13.38;1.63;;;;;;;;;;5092756;28;20036;-53
2021/11/05 06:52:32;;;;;;;16.58;1.42;;;;;;;;;;5094367;27;20034;-52
2021/11/05 06:54:57;;;;;;;6.93;1.50;;;;;;;;;;5091393;28;20028;-51
2021/11/05 06:57:23;;;;;;;7.57;1.30;;;;;;;;;;5093636;28;20487;-49
2021/11/05 06:59:48;;;;;;;9.60;2.00;;;;;;;;;;5090936;28;20040;-51
2021/11/05 07:02:14;;;;;;;10.63;1.40;;;;;;;;;;5092562;28;20039;-50
2021/11/05 07:04:40;;;;;;;12.82;1.13;;;;;;;;;;5100705;28;20048;-50
2021/11/05 07:07:06;;;;;;;8.65;1.48;;;;;;;;;;5095531;28;20024;-51
2021/11/05 07:09:32;;;;;;;11.73;1.05;;;;;;;;;;5096886;28;20055;-52
2021/11/05 07:11:58;;;;;;;5.78;1.20;;;;;;;;;;5095821;28;20397;-50
2021/11/05 07:14:23;;;;;;;6.72;1.63;;;;;;;;;;5095282;28;20032;-52
2021/11/05 07:16:49;;;;;;;11.90;1.13;;;;;;;;;;5091747;28;20114;-50
2021/11/05 07:19:15;;;;;;;6.68;0.90;;;;;;;;;;5092570;28;20114;-52
2021/11/05 07:21:41;;;;;;;8.95;1.10;;;;;;;;;;5090689;28;20016;-51
2021/11/05 07:24:07;;;;;;;10.38;1.00;;;;;;;;;;5095445;28;20111;-50
2021/11/05 07:26:43;;;;;;;5.68;1.27;;;;;;;;;;5097324;28;20099;-51
2021/11/05 07:29:11;;;;;;;14.05;1.33;;;;;;;;;;5096052;28;20035;-50
2021/11/05 07:31:36;;;;;;;11.57;1.20;;;;;;;;;;5073835;28;20036;-50
2021/11/05 07:34:02;;;;;;;15.88;1.38;;;;;;;;;;5088911;28;20031;-52
2021/11/05 07:36:28;;;;;;;8.88;1.45;;;;;;;;;;5095217;28;20034;-50
2021/11/05 07:38:54;;;;;;;5.93;1.00;;;;;;;;;;5089507;27;20036;-53
2021/11/05 07:41:20;;;;;;;8.10;1.48;;;;;;;;;;5098510;28;20392;-51
2021/11/05 07:43:47;;;;;;;8.57;1.65;;;;;;;;;;5091992;28;20032;-54
2021/11/05 07:46:13;;;;;;;9.88;1.50;;;;;;;;;;5096045;28;20077;-53
2021/11/05 07:48:39;;;;;;;16.08;1.92;;;;;;;;;;5096487;27;20111;-51
2021/11/05 07:51:04;;;;;;;11.48;1.67;;;;;;;;;;5092985;28;20110;-50
2021/11/05 07:53:30;;;;;;;7.65;1.23;;;;;;;;;;5095186;28;20031;-50
2021/11/05 07:55:55;;;;;;;7.25;1.08;;;;;;;;;;5097896;28;20570;-50
2021/11/05 07:58:21;;;;;;;10.65;1.73;;;;;;;;;;5091295;28;20036;-51
2021/11/05 08:00:47;;;;;;;11.00;1.50;;;;;;;;;;5088856;28;20028;-51
2021/11/05 08:03:13;;;;;;;12.13;1.65;;;;;;;;;;5091022;28;20502;-52
2021/11/05 08:05:39;;;;;;;6.80;0.80;;;;;;;;;;5091013;28;20056;-52
2021/11/05 08:08:04;;;;;;;12.18;1.88;;;;;;;;;;5088502;28;20098;-50
2021/11/05 08:10:30;;;;;;;11.95;1.45;;;;;;;;;;5098765;28;20049;-48
2021/11/05 08:12:55;;;;;;;8.13;1.50;;;;;;;;;;5095638;28;20086;-52
2021/11/05 08:15:22;;;;;;;15.38;1.60;;;;;;;;;;5093095;28;20039;-52
2021/11/05 08:17:48;;;;;;;9.15;1.67;;;;;;;;;;5094310;28;20052;-52
2021/11/05 08:20:14;;;;;;;8.60;1.38;;;;;;;;;;5089817;28;20036;-52
2021/11/05 08:22:42;;;;;;;22.83;1.25;;;;;;;;;;5094478;28;20394;-52
2021/11/05 08:25:09;;;;;;;4.00;1.42;;;;;;;;;;5090394;28;20064;-52
2021/11/05 08:27:36;;;;;;;9.52;1.95;;;;;;;;;;5095976;28;20570;-51
2021/11/05 08:30:06;;;;;;;6.78;1.20;;;;;;;;;;5095185;28;20055;-51
2021/11/05 08:32:32;;;;;;;16.17;1.73;;;;;;;;;;5090799;28;20032;-53
2021/11/05 08:34:57;;;;;;;6.70;1.52;;;;;;;;;;5089646;28;20517;-49
2021/11/05 08:37:23;;;;;;;11.38;0.88;;;;;;;;;;5093870;28;20024;-50
2021/11/05 08:39:48;;;;;;;3.30;0.80;;;;;;;;;;5079712;28;20123;-52
2021/11/05 08:42:14;;;;;;;10.93;2.35;;;;;;;;;;5089498;28;20035;-49
2021/11/05 08:44:39;;;;;;;15.02;1.20;;;;;;;;;;5094611;28;20032;-52
2021/11/05 08:47:05;;;;;;;8.55;1.15;;;;;;;;;;5092906;28;20020;-51
2021/11/05 08:49:31;;;;;;;15.38;1.42;;;;;;;;;;5096332;28;20067;-52
2021/11/05 08:51:56;;;;;;;9.85;1.60;;;;;;;;;;5093755;28;20040;-51
2021/11/05 08:54:23;;;;;;;9.13;1.23;;;;;;;;;;5090629;28;20020;-52
2021/11/05 08:56:49;;;;;;;6.70;1.70;;;;;;;;;;5090302;28;20035;-51
2021/11/05 08:59:17;;;;;;;10.38;1.60;;;;;;;;;;5080722;28;20039;-51
2021/11/05 09:01:42;;;;;;;9.68;1.40;;;;;;;;;;5097518;28;20024;-50
2021/11/05 09:04:13;;;;;;;5.20;0.60;;;;;;;;;;5097262;28;20054;-51
2021/11/05 09:06:42;;;;;;;4.60;1.17;;;;;;;;;;5097634;28;20042;-53
2021/11/05 09:09:08;;;;;;;6.28;0.88;;;;;;;;;;5079086;28;20039;-47
2021/11/05 09:11:34;;;;;;;4.03;0.82;;;;;;;;;;5096872;28;20375;-50
2021/11/05 09:14:00;;;;;;;9.55;1.58;;;;;;;;;;5093607;28;20070;-47
2021/11/05 09:16:28;;;;;;;12.00;1.40;;;;;;;;;;5097636;28;20596;-48
2021/11/05 09:18:54;;;;;;;3.85;0.88;;;;;;;;;;5093694;28;20077;-50
2021/11/05 09:21:20;;;;;;;10.95;1.70;;;;;;;;;;5095465;28;20042;-49
2021/11/05 09:23:46;;;;;;;5.80;0.90;;;;;;;;;;5090504;28;20028;-50
2021/11/05 09:26:11;;;;;;;9.02;1.20;;;;;;;;;;5091330;28;20113;-48
2021/11/05 09:28:37;;;;;;;5.47;0.85;;;;;;;;;;5095136;28;20485;-50
2021/11/05 09:31:03;;;;;;;20.88;1.23;;;;;;;;;;5094946;28;20039;-48
2021/11/05 09:33:30;;;;;;;12.65;1.17;;;;;;;;;;5078625;28;20081;-51
2021/11/05 09:35:55;;;;;;;6.20;1.15;;;;;;;;;;5097626;28;20107;-51
2021/11/05 09:38:21;;;;;;;5.57;0.95;;;;;;;;;;5096476;28;20039;-52
2021/11/05 09:40:50;;;;;;;7.05;1.00;;;;;;;;;;5092866;27;20027;-50
2021/11/05 09:43:16;;;;;;;7.85;1.33;;;;;;;;;;5089544;28;20024;-47
2021/11/05 09:45:42;;;;;;;6.10;1.10;;;;;;;;;;5094129;28;20031;-50
2021/11/05 09:48:07;;;;;;;10.00;1.30;;;;;;;;;;5094136;28;20047;-51
2021/11/05 09:50:33;;;;;;;11.48;1.70;;;;;;;;;;5099278;28;20375;-51
2021/11/05 09:52:59;;;;;;;13.20;1.77;;;;;;;;;;5094052;28;20044;-49
2021/11/05 09:55:25;;;;;;;7.93;1.45;;;;;;;;;;5073684;28;20040;-51
2021/11/05 09:57:52;;;;;;;3.50;1.00;;;;;;;;;;5092746;28;20024;-48
2021/11/05 10:00:22;;;;;;;11.05;1.98;;;;;;;;;;5091456;28;20031;-51
2021/11/05 10:02:48;;;;;;;8.25;1.90;;;;;;;;;;5089780;28;20032;-49
2021/11/05 10:05:14;;;;;;;6.78;1.48;;;;;;;;;;5089457;28;20128;-49
2021/11/05 10:07:54;;;;;;;11.48;2.33;;;;;;;;;;5092976;27;20035;-49
2021/11/05 10:10:32;;;;;;;7.18;1.55;;;;;;;;;;5101470;28;20035;-51
2021/11/05 10:13:01;;;;;;;7.15;1.58;;;;;;;;;;5097806;28;20323;-48
2021/11/05 10:15:34;;;;;;;15.77;3.05;;;;;;;;;;5095115;27;20110;-49
2021/11/05 10:18:07;;;;;;;7.28;2.35;;;;;;;;;;5075702;28;20032;-49
2021/11/05 10:20:33;;;;;;;7.45;1.92;;;;;;;;;;5093004;28;20678;-50
2021/11/05 10:23:02;;;;;;;9.52;2.05;;;;;;;;;;5091119;28;20036;-52
2021/11/05 10:25:28;;;;;;;11.02;1.80;;;;;;;;;;5093689;28;20039;-50
2021/11/05 10:28:18;;;;;;;9.05;1.40;;;;;;;;;;5092085;28;20036;-52
2021/11/05 10:30:43;;;;;;;9.00;1.33;;;;;;;;;;5080616;28;20078;-50
2021/11/05 10:33:11;;;;;;;7.75;1.77;;;;;;;;;;5089629;28;20502;-52
2021/11/05 10:35:39;;;;;;;8.05;1.73;;;;;;;;;;5096300;28;20046;-51
2021/11/05 10:38:07;;;;;;;7.20;1.10;;;;;;;;;;5091174;28;20032;-51
2021/11/05 10:40:57;;;;;;;12.63;1.52;;;;;;;;;;5095484;28;20701;-48
2021/11/05 10:43:30;;;;;;;9.73;1.75;;;;;;;;;;5083566;28;20127;-49
2021/11/05 10:45:56;;;;;;;9.52;1.48;;;;;;;;;;5090578;28;20031;-51
2021/11/05 10:48:25;;;;;;;10.48;1.50;;;;;;;;;;5095104;28;20027;-52
2021/11/05 10:50:55;;;;;;;10.52;1.33;;;;;;;;;;5095182;28;20110;-50
2021/11/05 10:53:26;;;;;;;6.88;1.25;;;;;;;;;;5093280;28;20418;-50
2021/11/05 10:55:57;;;;;;;12.10;2.10;;;;;;;;;;5090331;28;20372;-52
2021/11/05 10:58:24;;;;;;;9.63;1.80;;;;;;;;;;5097667;28;20085;-53
2021/11/05 11:00:57;;;;;;;13.98;2.92;;;;;;;;;;5096370;28;20300;-50
2021/11/05 11:03:35;;;;;;;5.75;1.60;;;;;;;;;;5095803;28;20084;-48
2021/11/05 11:06:12;;;;;;;5.93;1.90;;;;;;;;;;5092501;28;20044;-49
2021/11/05 11:08:41;;;;;;;11.40;2.40;;;;;;;;;;5092345;28;20087;-50
2021/11/05 11:11:19;;;;;;;11.57;2.50;;;;;;;;;;5072637;28;20425;-51
2021/11/05 11:13:47;;;;;;;10.38;2.85;;;;;;;;;;5090916;28;20031;-50
2021/11/05 11:16:22;;;;;;;8.27;2.63;;;;;;;;;;5092255;28;20191;-53
2021/11/05 11:18:54;;;;;;;14.82;3.40;;;;;;;;;;5094236;28;20493;-52
2021/11/05 11:21:21;;;;;;;8.65;2.72;;;;;;;;;;5099707;28;20023;-52
2021/11/05 11:23:48;;;;;;;11.32;2.92;;;;;;;;;;5092144;28;20028;-50
2021/11/05 11:26:14;;;;;;;11.52;3.67;;;;;;;;;;5097061;28;20032;-51
2021/11/05 11:28:40;;;;;;;12.38;3.00;;;;;;;;;;5093721;28;20620;-52
2021/11/05 11:31:06;;;;;;;10.13;2.42;;;;;;;;;;5094351;28;20427;-51
2021/11/05 11:33:32;;;;;;;10.63;2.83;;;;;;;;;;5091918;28;20063;-52
2021/11/05 11:35:59;;;;;;;9.73;2.50;;;;;;;;;;5091225;28;20027;-52
2021/11/05 11:38:26;;;;;;;11.27;2.67;;;;;;;;;;5092072;28;20042;-53
2021/11/05 11:40:52;;;;;;;8.63;1.90;;;;;;;;;;5089976;28;20044;-51
2021/11/05 11:43:21;;;;;;;5.97;2.08;;;;;;;;;;5089865;28;20136;-52
2021/11/05 11:45:49;;;;;;;6.88;2.55;;;;;;;;;;5092495;28;20525;-49
2021/11/05 11:48:40;;;;;;;5.95;3.15;;;;;;;;;;5091892;28;20122;-49
2021/11/05 11:51:27;;;;;;;10.05;3.25;;;;;;;;;;5090822;28;20521;-52
2021/11/05 11:54:23;;;;;;;14.13;3.53;;;;;;;;;;5095111;28;20080;-51
2021/11/05 11:56:52;;;;;;;18.25;4.30;;;;;;;;;;5072022;28;20043;-53
2021/11/05 11:59:18;;;;;;;10.15;4.28;;;;;;;;;;5091491;28;20039;-50
2021/11/05 12:01:45;;;;;;;25.95;4.60;;;;;;;;;;5090624;28;20027;-51
2021/11/05 12:04:17;;;;;;;9.38;3.35;;;;;;;;;;5092310;28;20048;-53
2021/11/05 12:06:46;;;;;;;12.15;3.00;;;;;;;;;;5089797;28;20053;-54
2021/11/05 12:09:39;;;;;;;6.85;3.17;;;;;;;;;;5084317;28;20038;-51
2021/11/05 12:12:20;;;;;;;15.05;4.25;;;;;;;;;;5091870;28;20111;-49
2021/11/05 12:15:01;;;;;;;8.90;2.70;;;;;;;;;;5091315;28;20028;-50
2021/11/05 12:17:29;;;;;;;10.90;3.65;;;;;;;;;;5090996;28;20411;-49
2021/11/05 12:20:00;;;;;;;7.72;3.50;;;;;;;;;;5091154;28;20513;-51
2021/11/05 12:22:29;;;;;;;9.52;3.13;;;;;;;;;;5090711;28;20015;-53
2021/11/05 12:25:29;;;;;;;8.10;2.92;;;;;;;;;;5088749;28;20085;-50
2021/11/05 12:28:18;;;;;;;11.52;2.65;;;;;;;;;;5052473;28;20040;-51
2021/11/05 12:30:45;;;;;;;8.80;2.88;;;;;;;;;;5091030;28;20024;-50
2021/11/05 12:33:27;;;;;;;10.27;3.28;;;;;;;;;;5077386;28;20119;-50
2021/11/05 12:35:53;;;;;;;7.43;2.97;;;;;;;;;;5089683;28;20567;-49
2021/11/05 12:38:19;;;;;;;7.93;2.05;;;;;;;;;;5090684;28;20077;-50
2021/11/05 12:40:55;;;;;;;20.90;3.72;;;;;;;;;;5089988;28;20043;-52
2021/11/05 12:43:20;;;;;;;8.18;2.53;;;;;;;;;;5088709;28;20043;-50
2021/11/05 12:45:53;;;;;;;7.43;2.40;;;;;;;;;;5096366;28;20481;-52
2021/11/05 12:48:40;;;;;;;6.53;2.70;;;;;;;;;;5093625;28;20019;-52
2021/11/05 12:51:06;;;;;;;8.43;3.05;;;;;;;;;;5095776;28;20028;-49
2021/11/05 12:53:32;;;;;;;7.95;2.22;;;;;;;;;;5094159;28;20028;-53
2021/11/05 12:55:57;;;;;;;6.68;3.25;;;;;;;;;;5095630;28;20036;-48
2021/11/05 12:58:28;;;;;;;6.78;2.92;;;;;;;;;;5099230;28;20213;-51
2021/11/05 13:00:55;;;;;;;8.93;3.42;;;;;;;;;;5095317;28;20020;-51
2021/11/05 13:03:21;;;;;;;6.45;2.80;;;;;;;;;;5096181;28;20031;-51
2021/11/05 13:05:59;;;;;;;6.55;3.05;;;;;;;;;;5096566;28;20521;-49
2021/11/05 13:08:36;;;;;;;13.98;3.22;;;;;;;;;;5098914;28;20093;-52
2021/11/05 13:11:05;;;;;;;5.38;2.33;;;;;;;;;;5096181;28;20024;-52
2021/11/05 13:13:31;;;;;;;8.70;3.22;;;;;;;;;;5100496;28;20084;-54
2021/11/05 13:15:58;;;;;;;8.40;3.50;;;;;;;;;;5103368;28;20055;-53
2021/11/05 13:18:24;;;;;;;13.18;2.58;;;;;;;;;;5097727;28;20642;-52
2021/11/05 13:20:49;;;;;;;9.13;2.95;;;;;;;;;;5100318;28;20034;-53
2021/11/05 13:23:18;;;;;;;13.15;3.10;;;;;;;;;;5098019;28;20028;-52
2021/11/05 13:25:46;;;;;;;12.40;3.17;;;;;;;;;;5097410;28;20020;-52
2021/11/05 13:28:17;;;;;;;11.30;2.78;;;;;;;;;;5093823;28;20032;-50
2021/11/05 13:30:46;;;;;;;5.13;3.33;;;;;;;;;;5096435;28;20024;-51
2021/11/05 13:33:17;;;;;;;10.13;2.30;;;;;;;;;;5099204;28;20565;-52
2021/11/05 13:35:51;;;;;;;9.93;2.78;;;;;;;;;;5094142;28;20043;-53
2021/11/05 13:38:19;;;;;;;8.77;2.10;;;;;;;;;;5097525;28;20095;-53
2021/11/05 13:41:06;;;;;;;10.75;2.38;;;;;;;;;;5097871;28;20054;-49
2021/11/05 13:43:34;;;;;;;6.38;2.45;;;;;;;;;;5093190;28;20110;-51
2021/11/05 13:46:06;;;;;;;6.30;2.38;;;;;;;;;;5092771;28;20038;-50
2021/11/05 13:48:35;;;;;;;13.05;2.42;;;;;;;;;;5092031;28;20036;-52
2021/11/05 13:51:12;;;;;;;12.55;2.35;;;;;;;;;;5094931;28;20035;-53
2021/11/05 13:53:47;;;;;;;10.50;2.33;;;;;;;;;;5092753;28;20039;-52
2021/11/05 13:56:15;;;;;;;6.88;2.25;;;;;;;;;;5091368;28;20110;-51
2021/11/05 13:58:42;;;;;;;10.60;2.15;;;;;;;;;;5092257;28;20061;-52
2021/11/05 14:01:16;;;;;;;12.50;2.80;;;;;;;;;;5096798;28;20055;-53
2021/11/05 14:03:42;;;;;;;10.02;2.50;;;;;;;;;;5093530;28;20105;-50
2021/11/05 14:06:12;;;;;;;8.75;2.90;;;;;;;;;;5096174;28;20087;-53
2021/11/05 14:08:51;;;;;;;11.27;3.72;;;;;;;;;;5101902;28;20035;-50
2021/11/05 14:11:28;;;;;;;8.20;3.30;;;;;;;;;;5097891;28;20457;-52
2021/11/05 14:13:54;;;;;;;10.63;4.00;;;;;;;;;;5099813;28;20040;-51
2021/11/05 14:16:20;;;;;;;9.38;2.13;;;;;;;;;;5095761;28;20423;-53
2021/11/05 14:18:46;;;;;;;12.55;2.75;;;;;;;;;;5098412;28;20035;-53
2021/11/05 14:21:22;;;;;;;11.05;2.50;;;;;;;;;;5096045;28;20027;-53
2021/11/05 14:23:49;;;;;;;23.55;3.63;;;;;;;;;;5089692;28;20032;-51
2021/11/05 14:26:20;;;;;;;10.50;3.08;;;;;;;;;;5092434;28;20036;-53
2021/11/05 14:28:46;;;;;;;8.88;3.17;;;;;;;;;;5092483;28;20019;-51
2021/11/05 14:31:11;;;;;;;10.30;2.70;;;;;;;;;;5096708;28;20031;-54
2021/11/05 14:33:37;;;;;;;9.27;2.28;;;;;;;;;;5102488;28;20039;-54
2021/11/05 14:36:18;;;;;;;8.95;2.63;;;;;;;;;;5103925;27;20497;-54
2021/11/05 14:38:54;;;;;;;6.40;2.30;;;;;;;;;;5099792;27;20397;-52